Time;durP1;ratioP1;P1;durP2;ratioP2;P2;SDS_P1;SDS_P2;PMS_P1;PMS_P2;Temp;Humidity;BMP_temperature;BMP_pressure;BME280_temperature;BME280_humidity;BME280_pressure;Samples;Min_cycle;Max_cycle;Signal;HPM_P1;HPM_P2
2024/01/30 00:01:22;;;;;;;63.90;33.90;;;;;;;1.00;100.00;102376.30;105633;1255;99884;-77
2024/01/30 00:04:07;;;;;;;60.80;36.10;;;;;;;0.99;100.00;102372.98;105690;1255;98539;-76
2024/01/30 00:06:53;;;;;;;66.30;35.60;;;;;;;0.99;100.00;102367.21;105499;1255;96681;-75
2024/01/30 00:09:41;;;;;;;64.80;32.90;;;;;;;1.00;100.00;102368.58;105615;1253;97128;-75
2024/01/30 00:12:27;;;;;;;62.30;33.10;;;;;;;1.02;100.00;102373.04;105591;1256;100696;-75
2024/01/30 00:15:13;;;;;;;61.60;33.10;;;;;;;1.03;100.00;102373.87;105516;1251;100020;-76
2024/01/30 00:17:58;;;;;;;51.30;30.10;;;;;;;1.01;100.00;102371.98;105686;1255;99027;-75
2024/01/30 00:20:44;;;;;;;53.20;30.70;;;;;;;1.01;100.00;102368.84;105775;1253;96792;-75
2024/01/30 00:23:29;;;;;;;59.40;29.00;;;;;;;1.01;100.00;102369.19;105894;1254;97260;-74
2024/01/30 00:26:15;;;;;;;51.20;27.60;;;;;;;1.02;100.00;102371.27;105734;1251;100943;-75
2024/01/30 00:29:01;;;;;;;49.80;26.90;;;;;;;1.02;100.00;102373.23;105585;1254;99211;-75
2024/01/30 00:31:46;;;;;;;54.10;26.30;;;;;;;1.02;100.00;102372.69;105556;1253;98956;-75
2024/01/30 00:34:31;;;;;;;45.70;25.80;;;;;;;1.02;100.00;102375.81;105610;1251;97839;-75
2024/01/30 00:37:17;;;;;;;54.10;25.90;;;;;;;1.04;100.00;102376.63;105644;1253;96623;-75
2024/01/30 00:40:03;;;;;;;49.70;24.60;;;;;;;1.05;100.00;102370.02;105625;1255;100004;-76
2024/01/30 00:42:49;;;;;;;48.10;22.70;;;;;;;1.07;100.00;102373.27;105605;1256;100786;-75
2024/01/30 00:45:34;;;;;;;47.10;22.70;;;;;;;1.09;100.00;102371.92;105578;1252;97771;-76
2024/01/30 00:48:20;;;;;;;45.50;23.00;;;;;;;1.11;100.00;102374.11;105547;1256;97887;-75
2024/01/30 00:51:06;;;;;;;44.20;22.60;;;;;;;1.12;100.00;102377.39;105636;1251;97128;-75
2024/01/30 00:53:51;;;;;;;43.20;23.50;;;;;;;1.14;100.00;102381.16;105652;1253;99983;-76
2024/01/30 00:56:37;;;;;;;41.70;22.30;;;;;;;1.15;100.00;102374.59;105691;1253;100311;-75
2024/01/30 00:59:22;;;;;;;39.50;21.80;;;;;;;1.14;100.00;102371.29;105652;1251;99467;-75
2024/01/30 01:02:08;;;;;;;41.90;22.80;;;;;;;1.14;100.00;102376.77;105661;1254;96591;-76
2024/01/30 01:04:53;;;;;;;43.70;21.00;;;;;;;1.13;100.00;102375.38;105757;1253;97054;-76
2024/01/30 01:07:40;;;;;;;43.40;22.10;;;;;;;1.11;100.00;102373.38;105886;1255;100647;-75
2024/01/30 01:10:25;;;;;;;44.00;24.00;;;;;;;1.10;100.00;102373.27;105680;1255;100890;-76
2024/01/30 01:13:11;;;;;;;44.00;22.90;;;;;;;1.10;100.00;102373.08;105582;1255;97700;-74
2024/01/30 01:15:57;;;;;;;40.40;21.60;;;;;;;1.10;100.00;102371.52;105771;1254;97999;-76
2024/01/30 01:18:42;;;;;;;48.50;24.20;;;;;;;1.09;100.00;102367.17;105783;1255;97061;-76
2024/01/30 01:21:28;;;;;;;45.10;22.30;;;;;;;1.08;100.00;102363.19;105620;1256;100487;-75
2024/01/30 01:24:13;;;;;;;38.70;21.70;;;;;;;1.08;100.00;102358.48;105582;1256;99867;-76
2024/01/30 01:26:59;;;;;;;46.90;22.50;;;;;;;1.07;100.00;102353.52;105618;1254;97877;-75
2024/01/30 01:29:45;;;;;;;48.80;22.90;;;;;;;1.07;100.00;102348.44;105617;1257;96657;-75
2024/01/30 01:32:30;;;;;;;43.90;23.20;;;;;;;1.08;100.00;102340.71;105593;1253;96514;-77
2024/01/30 01:35:16;;;;;;;45.80;23.10;;;;;;;1.08;100.00;102337.35;105663;1251;100480;-75
2024/01/30 01:38:02;;;;;;;45.30;22.20;;;;;;;1.08;100.00;102333.45;105599;1269;99109;-75
2024/01/30 01:40:48;;;;;;;45.10;22.40;;;;;;;1.08;100.00;102330.81;105701;1254;97710;-76
2024/01/30 01:43:33;;;;;;;40.20;21.70;;;;;;;1.07;100.00;102328.38;105700;1256;96591;-76
2024/01/30 01:46:19;;;;;;;43.70;22.90;;;;;;;1.07;100.00;102325.05;105637;1255;97132;-76
2024/01/30 01:49:05;;;;;;;46.30;23.00;;;;;;;1.07;100.00;102321.36;105654;1256;99980;-75
2024/01/30 01:51:53;;;;;;;46.50;23.50;;;;;;;1.07;100.00;102321.91;105877;1253;100334;-75
2024/01/30 01:54:39;;;;;;;41.10;22.10;;;;;;;1.07;100.00;102317.70;105647;1259;97690;-75
2024/01/30 01:57:24;;;;;;;37.50;22.70;;;;;;;1.06;100.00;102317.05;105635;1260;97771;-75
2024/01/30 02:00:12;;;;;;;38.40;21.20;;;;;;;1.05;100.00;102314.66;105633;1253;96536;-75
2024/01/30 02:02:59;;;;;;;45.20;22.90;;;;;;;1.05;100.00;102313.95;105700;1255;100741;-76
2024/01/30 02:05:45;;;;;;;49.60;22.70;;;;;;;1.04;100.00;102313.45;105545;1258;99965;-74
2024/01/30 02:08:31;;;;;;;47.70;22.00;;;;;;;1.04;100.00;102310.46;105604;1255;99070;-74
2024/01/30 02:11:16;;;;;;;42.90;21.10;;;;;;;1.03;100.00;102309.77;105556;1256;97215;-75
2024/01/30 02:14:04;;;;;;;40.40;21.80;;;;;;;1.04;100.00;102311.49;105659;1253;97119;-76
2024/01/30 02:16:49;;;;;;;46.70;21.80;;;;;;;1.03;100.00;102312.46;105642;1257;101259;-75
2024/01/30 02:19:35;;;;;;;39.90;22.30;;;;;;;1.02;100.00;102312.16;105716;1251;99059;-75
2024/01/30 02:22:22;;;;;;;47.10;22.40;;;;;;;1.01;100.00;102311.86;105626;1255;98400;-76
2024/01/30 02:25:08;;;;;;;40.70;21.80;;;;;;;1.01;100.00;102308.73;105737;1254;97583;-75
2024/01/30 02:27:53;;;;;;;45.10;23.30;;;;;;;1.00;100.00;102307.67;105853;1251;96542;-75
2024/01/30 02:30:47;;;;;;;43.00;22.60;;;;;;;1.00;100.00;102305.94;105861;1255;100169;-75
2024/01/30 02:33:33;;;;;;;43.80;22.30;;;;;;;1.00;100.00;102308.75;105803;1255;100489;-75
2024/01/30 02:36:19;;;;;;;44.00;22.50;;;;;;;0.99;100.00;102313.37;105901;1260;98356;-76
2024/01/30 02:39:05;;;;;;;39.80;20.80;;;;;;;0.98;100.00;102312.57;105874;1253;96618;-75
2024/01/30 02:41:50;;;;;;;42.50;21.20;;;;;;;0.97;100.00;102315.23;105713;1253;97128;-75
2024/01/30 02:44:36;;;;;;;44.60;21.70;;;;;;;0.97;100.00;102318.41;105698;1251;99918;-75
2024/01/30 02:47:22;;;;;;;44.80;22.00;;;;;;;0.95;100.00;102314.64;105626;1253;99136;-76
2024/01/30 02:50:08;;;;;;;43.50;22.80;;;;;;;0.94;100.00;102310.47;105801;1265;99080;-76
2024/01/30 02:52:53;;;;;;;45.90;20.60;;;;;;;0.93;100.00;102311.06;105638;1254;97862;-75
2024/01/30 02:55:39;;;;;;;45.30;21.90;;;;;;;0.91;100.00;102307.34;105713;1255;97214;-75
2024/01/30 02:58:25;;;;;;;41.90;21.70;;;;;;;0.89;100.00;102310.59;105735;1254;100548;-75
2024/01/30 03:01:10;;;;;;;41.40;21.20;;;;;;;0.86;100.00;102309.54;105690;1256;100290;-75
2024/01/30 03:03:56;;;;;;;40.40;21.70;;;;;;;0.85;100.00;102307.30;105780;1255;98875;-76
2024/01/30 03:06:48;;;;;;;40.00;20.80;;;;;;;0.85;100.00;102304.16;105810;1255;97879;-76
2024/01/30 03:09:34;;;;;;;37.20;20.50;;;;;;;0.83;100.00;102308.46;105813;1255;97109;-76
2024/01/30 03:12:19;;;;;;;46.00;23.50;;;;;;;0.80;100.00;102310.38;105658;1253;101236;-75
2024/01/30 03:15:05;;;;;;;42.20;20.70;;;;;;;0.78;100.00;102312.23;105784;1253;100351;-76
2024/01/30 03:17:51;;;;;;;44.00;21.40;;;;;;;0.77;100.00;102306.33;105893;1255;97729;-74
2024/01/30 03:20:37;;;;;;;41.50;22.60;;;;;;;0.76;100.00;102308.96;105844;1254;96511;-77
2024/01/30 03:23:22;;;;;;;45.10;21.40;;;;;;;0.76;100.00;102313.55;105906;1253;96624;-75
2024/01/30 03:26:09;;;;;;;44.80;22.80;;;;;;;0.76;100.00;102315.52;105600;1255;101234;-75
2024/01/30 03:28:54;;;;;;;42.00;21.60;;;;;;;0.74;100.00;102314.73;105688;1256;100749;-76
2024/01/30 03:31:39;;;;;;;42.00;21.70;;;;;;;0.73;100.00;102313.38;105387;1256;154220;-75
2024/01/30 03:34:25;;;;;;;42.40;20.90;;;;;;;0.72;100.00;102312.38;105581;1255;97857;-76
2024/01/30 03:37:11;;;;;;;43.80;22.50;;;;;;;0.71;100.00;102310.14;105673;1255;97239;-75
2024/01/30 03:39:57;;;;;;;42.70;21.10;;;;;;;0.71;100.00;102304.90;105732;1255;99951;-75
2024/01/30 03:42:42;;;;;;;40.50;20.70;;;;;;;0.70;100.00;102304.04;107010;1251;99059;-76
2024/01/30 03:45:28;;;;;;;40.90;21.90;;;;;;;0.69;100.00;102304.79;105843;1253;98889;-76
2024/01/30 03:48:13;;;;;;;45.10;20.90;;;;;;;0.70;100.00;102306.18;105889;1253;97265;-75
2024/01/30 03:50:59;;;;;;;39.10;21.40;;;;;;;0.69;100.00;102303.41;105909;1253;96723;-76
2024/01/30 03:53:48;;;;;;;40.60;20.90;;;;;;;0.69;100.00;102303.23;105763;1255;100020;-76
2024/01/30 03:56:33;;;;;;;42.30;21.50;;;;;;;0.70;100.00;102305.30;105695;1256;100898;-76
2024/01/30 03:59:23;;;;;;;42.30;21.60;;;;;;;0.69;100.00;102305.33;105692;1253;98977;-75
2024/01/30 04:02:11;;;;;;;40.90;20.80;;;;;;;0.69;100.00;102299.39;105666;1251;96592;-76
2024/01/30 04:04:56;;;;;;;41.90;21.40;;;;;;;0.69;100.00;102295.34;105696;1256;97897;-75
2024/01/30 04:07:42;;;;;;;39.90;20.30;;;;;;;0.68;100.00;102293.77;105746;1254;100011;-77
2024/01/30 04:10:28;;;;;;;42.30;22.30;;;;;;;0.66;100.00;102291.09;105702;1253;101937;-76
2024/01/30 04:13:14;;;;;;;41.90;22.70;;;;;;;0.63;100.00;102293.86;105559;1255;98949;-76
2024/01/30 04:16:03;;;;;;;42.00;23.00;;;;;;;0.63;100.00;102294.42;105634;1251;96582;-76
2024/01/30 04:18:49;;;;;;;39.00;20.60;;;;;;;0.62;100.00;102296.21;105627;1258;96593;-76
2024/01/30 04:21:34;;;;;;;42.10;20.50;;;;;;;0.60;100.00;102296.66;105910;1257;101249;-76
2024/01/30 04:24:20;;;;;;;37.20;20.90;;;;;;;0.59;100.00;102297.28;105807;1253;99081;-75
2024/01/30 04:27:06;;;;;;;41.40;20.80;;;;;;;0.58;100.00;102295.94;105616;1256;97730;-77
2024/01/30 04:29:51;;;;;;;41.60;19.70;;;;;;;0.56;100.00;102293.57;105698;1255;96509;-76
2024/01/30 04:32:37;;;;;;;38.60;20.90;;;;;;;0.55;100.00;102293.27;105611;1251;97035;-75
2024/01/30 04:35:24;;;;;;;39.20;20.10;;;;;;;0.56;100.00;102290.56;105704;1259;100226;-75
2024/01/30 04:38:10;;;;;;;40.00;20.10;;;;;;;0.57;100.00;102293.19;105907;1254;100536;-77
2024/01/30 04:40:55;;;;;;;42.90;20.50;;;;;;;0.57;100.00;102290.88;105833;1253;97756;-77
2024/01/30 04:43:41;;;;;;;42.00;21.50;;;;;;;0.56;100.00;102286.70;105848;1253;96599;-76
2024/01/30 04:46:27;;;;;;;38.40;21.10;;;;;;;0.57;100.00;102289.30;105843;1251;97801;-76
2024/01/30 04:49:12;;;;;;;40.60;19.90;;;;;;;0.57;100.00;102289.45;105605;1258;99998;-77
2024/01/30 04:51:58;;;;;;;39.60;19.00;;;;;;;0.58;100.00;102290.33;105712;1256;100360;-76
2024/01/30 04:54:43;;;;;;;42.80;20.30;;;;;;;0.58;100.00;102292.60;105906;1255;99009;-76
2024/01/30 04:57:30;;;;;;;38.90;19.80;;;;;;;0.58;100.00;102293.80;105899;1253;97141;-75
2024/01/30 05:00:16;;;;;;;39.40;20.40;;;;;;;0.59;100.00;102296.06;105865;1251;97016;-76
2024/01/30 05:03:02;;;;;;;39.90;19.80;;;;;;;0.59;100.00;102293.73;105901;1254;100776;-75
2024/01/30 05:05:48;;;;;;;36.60;19.90;;;;;;;0.60;100.00;102294.23;105862;1255;99068;-77
2024/01/30 05:08:36;;;;;;;38.10;18.90;;;;;;;0.60;100.00;102295.42;105833;1257;97794;-76
2024/01/30 05:11:22;;;;;;;39.10;19.60;;;;;;;0.61;100.00;102289.60;105804;1256;96598;-77
2024/01/30 05:14:11;;;;;;;36.90;19.00;;;;;;;0.62;100.00;102290.94;105928;1255;97108;-76
2024/01/30 05:16:57;;;;;;;39.10;19.50;;;;;;;0.63;100.00;102293.22;105897;1256;99985;-77
2024/01/30 05:19:44;;;;;;;36.00;19.40;;;;;;;0.64;100.00;102294.56;105939;1253;99070;-77
2024/01/30 05:22:29;;;;;;;37.90;18.90;;;;;;;0.64;100.00;102297.02;105674;1257;99021;-77
2024/01/30 05:25:15;;;;;;;35.70;18.40;;;;;;;0.63;100.00;102297.39;105550;1258;96543;-77
2024/01/30 05:28:00;;;;;;;37.00;18.70;;;;;;;0.63;100.00;102294.93;105757;1255;96679;-76
2024/01/30 05:30:46;;;;;;;42.10;20.70;;;;;;;0.62;100.00;102296.21;105579;1256;101231;-77
2024/01/30 05:33:31;;;;;;;41.50;19.70;;;;;;;0.60;100.00;102296.48;105713;1256;99187;-77
2024/01/30 05:36:18;;;;;;;43.70;20.10;;;;;;;0.59;100.00;102294.84;105749;1254;97954;-76
2024/01/30 05:39:04;;;;;;;37.50;18.30;;;;;;;0.57;100.00;102294.73;105603;1256;96684;-78
2024/01/30 05:41:49;;;;;;;35.90;18.30;;;;;;;0.54;100.00;102296.64;105662;1256;97141;-77
2024/01/30 05:44:35;;;;;;;41.20;20.70;;;;;;;0.53;100.00;102296.73;105577;1255;100088;-76
2024/01/30 05:47:20;;;;;;;38.60;21.90;;;;;;;0.52;100.00;102295.20;105616;1255;100336;-77
2024/01/30 05:50:06;;;;;;;42.80;22.40;;;;;;;0.52;100.00;102293.08;105755;1256;99077;-76
2024/01/30 05:52:52;;;;;;;40.00;21.30;;;;;;;0.51;100.00;102288.90;105581;1256;97331;-76
2024/01/30 05:55:38;;;;;;;37.90;20.60;;;;;;;0.50;100.00;102283.85;105599;1256;97940;-75
2024/01/30 05:58:23;;;;;;;43.10;21.10;;;;;;;0.51;100.00;102285.08;105631;1255;101235;-77
2024/01/30 06:01:09;;;;;;;47.90;21.00;;;;;;;0.51;100.00;102285.59;106428;1252;99525;-84
2024/01/30 06:03:55;;;;;;;47.20;23.50;;;;;;;0.50;100.00;102284.90;106465;1256;98593;-80
2024/01/30 06:06:41;;;;;;;51.50;24.80;;;;;;;0.50;100.00;102291.10;106387;1252;96596;-80
2024/01/30 06:09:27;;;;;;;38.90;21.60;;;;;;;0.50;100.00;102293.55;106326;1253;96609;-78
2024/01/30 06:12:12;;;;;;;44.50;23.20;;;;;;;0.51;100.00;102297.00;105922;1261;101649;-79
2024/01/30 06:14:58;;;;;;;41.30;20.90;;;;;;;0.52;100.00;102296.78;106291;1256;99190;-78
2024/01/30 06:17:43;;;;;;;40.60;19.70;;;;;;;0.52;100.00;102293.98;106002;1256;98009;-79
2024/01/30 06:20:29;;;;;;;43.20;22.50;;;;;;;0.52;100.00;102295.35;105946;1256;97487;-78
2024/01/30 06:23:15;;;;;;;40.70;21.10;;;;;;;0.52;100.00;102292.53;106358;1256;97058;-78
2024/01/30 06:26:00;;;;;;;43.90;22.00;;;;;;;0.53;100.00;102294.25;105915;1256;100026;-79
2024/01/30 06:28:46;;;;;;;43.60;22.30;;;;;;;0.54;100.00;102297.00;106237;1253;99089;-79
2024/01/30 06:31:31;;;;;;;41.10;19.10;;;;;;;0.55;100.00;102299.79;106319;1255;98588;-79
2024/01/30 06:34:17;;;;;;;41.70;18.90;;;;;;;0.55;100.00;102306.61;106202;1259;96565;-79
2024/01/30 06:37:02;;;;;;;38.00;18.60;;;;;;;0.56;100.00;102313.27;106099;1257;96771;-80
2024/01/30 06:39:48;;;;;;;36.40;19.50;;;;;;;0.57;100.00;102312.17;106252;1253;99982;-80
2024/01/30 06:42:34;;;;;;;47.50;22.30;;;;;;;0.58;100.00;102312.80;106478;1251;100502;-79
2024/01/30 06:45:19;;;;;;;48.00;25.80;;;;;;;0.59;100.00;102306.92;106069;1256;97925;-80
2024/01/30 06:48:07;;;;;;;43.90;25.80;;;;;;;0.60;100.00;102306.52;106723;1254;95750;-79
2024/01/30 06:50:54;;;;;;;41.50;22.40;;;;;;;0.61;100.00;102309.61;105827;1256;97103;-79
2024/01/30 06:53:39;;;;;;;39.20;22.10;;;;;;;0.62;100.00;102306.40;106616;1255;99981;-79
2024/01/30 06:56:25;;;;;;;37.20;21.10;;;;;;;0.64;100.00;102307.36;106110;1251;99183;-79
2024/01/30 06:59:10;;;;;;;35.70;18.10;;;;;;;0.67;100.00;102305.46;106257;1256;97673;-78
2024/01/30 07:01:56;;;;;;;34.30;17.20;;;;;;;0.69;100.00;102304.29;106183;1257;96709;-79
2024/01/30 07:04:41;;;;;;;34.70;17.10;;;;;;;0.71;100.00;102309.61;106370;1251;96618;-78
2024/01/30 07:07:28;;;;;;;30.10;17.20;;;;;;;0.73;100.00;102305.98;106605;1256;99959;-80
2024/01/30 07:10:14;;;;;;;33.30;16.50;;;;;;;0.77;100.00;102310.36;106378;1256;99180;-80
2024/01/30 07:13:01;;;;;;;29.40;16.60;;;;;;;0.80;100.00;102312.14;106331;1256;97901;-79
2024/01/30 07:15:46;;;;;;;31.00;16.10;;;;;;;0.84;100.00;102312.13;106279;1252;97876;-78
2024/01/30 07:18:32;;;;;;;32.60;16.80;;;;;;;0.86;100.00;102312.52;106334;1256;96799;-79
2024/01/30 07:21:17;;;;;;;27.40;15.90;;;;;;;0.89;100.00;102311.67;106316;1260;99971;-79
2024/01/30 07:24:03;;;;;;;35.80;15.80;;;;;;;0.92;100.00;102313.05;106069;1255;100146;-81
2024/01/30 07:26:49;;;;;;;32.20;17.10;;;;;;;0.96;100.00;102316.35;105858;1255;98497;-78
2024/01/30 07:29:34;;;;;;;36.60;15.60;;;;;;;1.00;100.00;102314.88;106311;1251;97336;-79
2024/01/30 07:32:20;;;;;;;27.40;14.50;;;;;;;1.05;100.00;102316.06;106297;1256;97110;-79
2024/01/30 07:35:06;;;;;;;31.40;16.10;;;;;;;1.09;100.00;102314.20;106334;1257;100044;-79
2024/01/30 07:37:51;;;;;;;30.00;15.60;;;;;;;1.14;100.00;102314.67;105883;1256;99062;-78
2024/01/30 07:40:37;;;;;;;31.60;15.10;;;;;;;1.19;100.00;102316.49;106093;1254;99151;-79
2024/01/30 07:43:22;;;;;;;32.20;15.40;;;;;;;1.26;100.00;102315.73;106290;1257;96595;-78
2024/01/30 07:46:08;;;;;;;32.80;17.40;;;;;;;1.36;100.00;102314.83;106685;1251;98033;-79
2024/01/30 07:48:53;;;;;;;79.80;40.40;;;;;;;1.41;100.00;102314.33;106313;1255;101262;-79
2024/01/30 07:51:39;;;;;;;60.50;27.80;;;;;;;1.45;100.00;102316.73;106336;1256;99132;-79
2024/01/30 07:54:25;;;;;;;73.90;32.00;;;;;;;1.48;100.00;102316.20;106291;1251;98652;-79
2024/01/30 07:57:10;;;;;;;44.40;21.20;;;;;;;1.52;100.00;102313.02;106275;1256;96691;-79
2024/01/30 07:59:57;;;;;;;35.20;19.40;;;;;;;1.54;100.00;102310.74;106308;1257;95845;-79
2024/01/30 08:02:43;;;;;;;41.20;19.70;;;;;;;1.58;100.00;102302.80;106493;1251;101309;-79
2024/01/30 08:05:28;;;;;;;133.40;48.70;;;;;;;1.61;100.00;102302.98;106387;1256;99224;-78
2024/01/30 08:08:14;;;;;;;154.90;57.20;;;;;;;1.65;100.00;102301.36;106133;1258;97754;-79
2024/01/30 08:10:59;;;;;;;175.10;70.00;;;;;;;1.69;100.00;102300.94;107061;1255;96872;-79
2024/01/30 08:13:44;;;;;;;86.00;39.40;;;;;;;1.73;100.00;102303.72;106240;1257;97001;-78
2024/01/30 08:16:30;;;;;;;250.40;99.50;;;;;;;1.78;100.00;102303.08;106286;1257;101270;-78
2024/01/30 08:19:16;;;;;;;127.20;59.30;;;;;;;1.82;100.00;102303.36;106362;1251;101353;-81
2024/01/30 08:22:01;;;;;;;148.20;79.40;;;;;;;1.87;100.00;102300.09;106585;1257;98437;-76
2024/01/30 08:24:46;;;;;;;155.90;81.70;;;;;;;1.92;100.00;102304.89;105951;1251;96693;-75
2024/01/30 08:27:32;;;;;;;59.10;35.80;;;;;;;1.96;100.00;102302.84;105804;1251;98188;-75
2024/01/30 08:30:19;;;;;;;43.60;24.40;;;;;;;2.01;100.00;102299.54;105854;1256;101213;-82
2024/01/30 08:33:04;;;;;;;43.10;26.80;;;;;;;2.06;100.00;102301.75;106245;1260;100412;-75
2024/01/30 08:35:50;;;;;;;35.70;19.50;;;;;;;2.11;100.00;102303.23;105759;1251;97697;-75
2024/01/30 08:38:35;;;;;;;31.30;19.00;;;;;;;2.16;100.00;102300.61;105888;1254;97765;-75
2024/01/30 08:41:21;;;;;;;35.20;18.50;;;;;;;2.20;100.00;102296.28;105575;1255;98297;-73
2024/01/30 08:44:07;;;;;;;27.60;17.10;;;;;;;2.25;100.00;102299.85;105180;1261;101236;-74
2024/01/30 08:46:53;;;;;;;40.60;22.70;;;;;;;2.30;100.00;102302.17;105356;1257;100523;-74
2024/01/30 08:49:38;;;;;;;32.50;17.10;;;;;;;2.35;100.00;102300.83;105544;1258;97698;-82
2024/01/30 08:52:24;;;;;;;36.40;18.60;;;;;;;2.41;100.00;102301.00;106307;1261;97194;-81
2024/01/30 08:55:10;;;;;;;33.60;19.20;;;;;;;2.47;100.00;102303.10;106241;1254;97090;-82
2024/01/30 08:57:56;;;;;;;36.70;21.70;;;;;;;2.53;100.00;102305.19;106324;1254;101328;-83
2024/01/30 09:00:42;;;;;;;32.10;16.80;;;;;;;2.59;100.00;102307.45;106526;1254;100489;-78
2024/01/30 09:03:28;;;;;;;29.70;16.00;;;;;;;2.64;100.00;102304.67;106484;1257;99098;-89
2024/01/30 09:06:15;;;;;;;32.80;16.50;;;;;;;2.71;100.00;102308.33;106669;1254;95318;-86
2024/01/30 09:09:01;;;;;;;29.20;16.00;;;;;;;2.77;100.00;102306.70;106490;1254;96284;-81
2024/01/30 09:11:47;;;;;;;33.80;15.60;;;;;;;2.83;100.00;102307.39;106665;1254;99992;-80
2024/01/30 09:14:33;;;;;;;31.40;14.40;;;;;;;2.88;100.00;102304.23;106448;1254;99729;-81
2024/01/30 09:17:19;;;;;;;28.00;16.10;;;;;;;2.94;100.00;102304.23;106487;1257;98971;-80
2024/01/30 09:20:05;;;;;;;26.30;14.40;;;;;;;2.99;100.00;102303.35;106509;1260;96843;-82
2024/01/30 09:22:53;;;;;;;29.70;16.60;;;;;;;3.04;100.00;102298.42;106351;1254;96679;-84
2024/01/30 09:25:39;;;;;;;27.20;14.30;;;;;;;3.10;100.00;102298.60;106031;1260;100917;-80
2024/01/30 09:28:24;;;;;;;27.30;15.10;;;;;;;3.16;100.00;102299.29;106353;1257;99097;-82
2024/01/30 09:31:10;;;;;;;26.40;14.20;;;;;;;3.21;99.99;102294.58;106148;1258;97707;-84
2024/01/30 09:33:56;;;;;;;27.80;14.60;;;;;;;3.26;99.95;102297.38;106067;1261;96702;-84
2024/01/30 09:36:42;;;;;;;26.80;13.90;;;;;;;3.32;99.81;102293.13;106023;1254;97175;-84
2024/01/30 09:39:28;;;;;;;33.30;16.20;;;;;;;3.37;99.73;102288.90;106196;1259;100905;-83
2024/01/30 09:42:22;;;;;;;29.30;15.30;;;;;;;3.43;99.62;102288.34;106286;1255;99894;-74
2024/01/30 09:45:12;;;;;;;31.10;15.30;;;;;;;3.49;99.51;102281.39;105911;1257;98959;-88
2024/01/30 09:48:01;;;;;;;31.30;15.40;;;;;;;3.56;99.51;102279.16;105431;1254;96634;-75
2024/01/30 09:50:47;;;;;;;27.10;15.40;;;;;;;3.62;99.54;102280.02;105538;1257;97118;-74
2024/01/30 09:53:32;;;;;;;28.40;15.50;;;;;;;3.68;99.64;102284.16;105551;1259;100081;-75
2024/01/30 09:56:19;;;;;;;31.20;18.60;;;;;;;3.75;99.48;102280.84;105520;1257;99263;-75
2024/01/30 09:59:04;;;;;;;37.00;20.00;;;;;;;3.81;99.20;102277.95;105503;1258;99007;-75
2024/01/30 10:01:51;;;;;;;28.70;17.70;;;;;;;3.87;99.06;102280.02;105559;1257;97121;-75
2024/01/30 10:04:37;;;;;;;24.20;15.10;;;;;;;3.93;98.90;102276.66;105581;1258;97094;-76
2024/01/30 10:07:23;;;;;;;24.70;14.60;;;;;;;3.99;98.90;102277.15;105552;1254;99973;-75
2024/01/30 10:10:08;;;;;;;25.00;14.60;;;;;;;4.05;98.82;102270.55;105432;1260;100210;-75
2024/01/30 10:12:54;;;;;;;25.30;14.40;;;;;;;4.11;98.69;102266.79;105536;1258;97759;-75
2024/01/30 10:15:40;;;;;;;21.00;13.50;;;;;;;4.16;98.36;102259.16;105396;1260;96650;-75
2024/01/30 10:18:26;;;;;;;30.00;15.90;;;;;;;4.22;98.40;102253.61;105581;1257;97073;-75
2024/01/30 10:21:12;;;;;;;24.70;14.20;;;;;;;4.27;97.93;102252.40;105407;1254;101292;-75
2024/01/30 10:23:59;;;;;;;26.50;15.00;;;;;;;4.31;97.81;102251.17;105468;1257;99070;-75
2024/01/30 10:26:44;;;;;;;31.80;17.80;;;;;;;4.36;98.13;102247.30;105443;1257;99876;-75
2024/01/30 10:29:30;;;;;;;56.40;31.50;;;;;;;4.40;97.99;102243.67;105416;1254;96635;-74
2024/01/30 10:32:15;;;;;;;46.70;24.60;;;;;;;4.45;97.83;102241.39;105451;1254;97144;-74
2024/01/30 10:35:01;;;;;;;39.40;21.30;;;;;;;4.49;97.79;102234.77;105237;1265;100876;-75
2024/01/30 10:37:47;;;;;;;52.70;29.60;;;;;;;4.54;97.84;102233.33;105479;1257;99064;-74
2024/01/30 10:40:35;;;;;;;41.70;23.40;;;;;;;4.58;97.47;102230.67;105511;1257;97739;-74
2024/01/30 10:43:22;;;;;;;33.20;18.60;;;;;;;4.64;97.08;102228.63;105472;1257;96677;-74
2024/01/30 10:46:15;;;;;;;39.00;21.70;;;;;;;4.71;97.01;102230.16;105480;1258;96634;-75
2024/01/30 10:49:01;;;;;;;33.30;19.60;;;;;;;4.75;96.77;102227.35;105687;1254;99987;-74
2024/01/30 10:51:48;;;;;;;30.50;16.50;;;;;;;4.79;96.47;102222.10;105412;1258;99090;-75
2024/01/30 10:54:34;;;;;;;44.40;23.30;;;;;;;4.85;96.32;102220.63;105400;1267;97712;-74
2024/01/30 10:57:25;;;;;;;125.90;62.70;;;;;;;4.90;96.02;102217.23;105430;1257;96701;-75
2024/01/30 11:00:15;;;;;;;61.10;34.20;;;;;;;4.94;96.00;102216.74;105362;1257;96607;-74
2024/01/30 11:03:00;;;;;;;41.10;22.30;;;;;;;4.98;96.22;102213.64;105430;1254;100049;-74
2024/01/30 11:05:50;;;;;;;49.30;25.50;;;;;;;5.02;96.28;102209.80;105457;1257;99144;-73
2024/01/30 11:08:36;;;;;;;49.70;25.90;;;;;;;5.06;96.26;102211.97;105397;1257;97738;-75
2024/01/30 11:11:21;;;;;;;34.60;19.70;;;;;;;5.09;95.84;102208.55;105357;1257;96590;-75
2024/01/30 11:14:09;;;;;;;24.80;15.10;;;;;;;5.12;95.80;102209.08;105416;1257;96699;-74
2024/01/30 11:16:58;;;;;;;27.00;14.60;;;;;;;5.16;95.94;102208.79;105400;1257;99980;-74
2024/01/30 11:19:46;;;;;;;23.70;13.40;;;;;;;5.18;95.48;102205.58;105468;1254;99711;-74
2024/01/30 11:22:31;;;;;;;26.80;13.10;;;;;;;5.21;95.41;102200.55;105338;1255;98469;-74
2024/01/30 11:25:19;;;;;;;24.40;14.30;;;;;;;5.25;95.31;102195.52;105372;1254;96597;-74
2024/01/30 11:28:05;;;;;;;22.30;12.50;;;;;;;5.28;95.25;102188.37;105573;1254;97094;-75
2024/01/30 11:30:50;;;;;;;69.20;38.10;;;;;;;5.31;95.26;102183.87;106514;1254;99975;-84
2024/01/30 11:33:36;;;;;;;29.20;18.70;;;;;;;5.36;95.04;102186.17;106029;1254;100887;-87
2024/01/30 11:36:26;;;;;;;33.60;19.20;;;;;;;5.39;94.87;102181.14;106598;1256;109222;-88
2024/01/30 11:39:14;;;;;;;28.40;16.50;;;;;;;5.41;95.14;102178.36;106153;1257;96576;-87
2024/01/30 11:42:00;;;;;;;30.70;20.70;;;;;;;5.45;95.08;102175.17;106485;1255;96512;-83
2024/01/30 11:44:47;;;;;;;24.70;16.90;;;;;;;5.50;94.73;102170.79;106334;1254;101123;-85
2024/01/30 11:47:37;;;;;;;26.80;15.60;;;;;;;5.53;94.36;102167.20;106234;1256;101556;-85
2024/01/30 11:50:33;;;;;;;23.30;14.30;;;;;;;5.56;94.09;102166.30;106220;1254;98871;-84
2024/01/30 11:53:19;;;;;;;23.40;15.30;;;;;;;5.58;94.21;102165.34;106108;1254;97045;-83
2024/01/30 11:56:08;;;;;;;26.20;14.30;;;;;;;5.62;94.07;102161.92;106301;1253;97309;-84
2024/01/30 11:58:56;;;;;;;24.40;14.20;;;;;;;5.64;93.66;102159.43;106263;1259;100055;-85
2024/01/30 12:01:42;;;;;;;27.90;13.60;;;;;;;5.67;93.41;102159.73;106485;1253;99177;-87
2024/01/30 12:04:29;;;;;;;19.70;11.90;;;;;;;5.70;93.13;102155.63;106081;1258;97730;-83
2024/01/30 12:07:16;;;;;;;27.30;13.00;;;;;;;5.73;93.06;102157.13;106234;1260;97858;-81
2024/01/30 12:10:02;;;;;;;24.90;14.70;;;;;;;5.76;92.96;102154.22;106477;1257;98556;-81
2024/01/30 12:12:51;;;;;;;26.00;16.10;;;;;;;5.80;93.10;102156.19;106492;1256;101607;-81
2024/01/30 12:15:37;;;;;;;27.30;15.60;;;;;;;5.85;92.52;102148.71;106239;1253;100332;-81
2024/01/30 12:18:23;;;;;;;25.40;15.50;;;;;;;5.90;92.09;102150.50;106218;1255;97773;-80
2024/01/30 12:21:08;;;;;;;24.60;12.90;;;;;;;5.93;91.80;102153.60;106050;1253;96622;-83
2024/01/30 12:23:54;;;;;;;22.50;14.10;;;;;;;5.97;91.76;102152.97;106242;1254;97881;-80
2024/01/30 12:26:39;;;;;;;22.30;14.10;;;;;;;6.00;91.63;102155.75;105940;1253;99990;-82